createdAt,value
2022-10-10T00:04:15.542Z,99.90
2022-10-10T00:09:18.544Z,99.90
2022-10-10T00:14:23.108Z,99.90
2022-10-10T00:19:26.460Z,99.90
2022-10-10T00:24:29.518Z,99.90
2022-10-10T00:29:33.932Z,99.90
2022-10-10T00:34:36.973Z,99.90
2022-10-10T00:39:41.132Z,99.90
2022-10-10T00:45:06.966Z,99.90
2022-10-10T00:50:10.533Z,99.90
2022-10-10T00:55:14.717Z,99.90
2022-10-10T01:00:19.635Z,99.90
2022-10-10T01:05:23.048Z,99.90
2022-10-10T01:10:26.316Z,99.90
2022-10-10T01:15:43.874Z,99.90
2022-10-10T01:21:09.619Z,99.90
2022-10-10T01:26:34.686Z,99.90
2022-10-10T01:31:42.650Z,99.90
2022-10-10T01:36:52.466Z,99.90
2022-10-10T01:42:03.148Z,99.90
2022-10-10T01:47:10.184Z,99.90
2022-10-10T01:52:26.676Z,99.90
2022-10-10T01:57:39.615Z,99.90
2022-10-10T02:02:52.591Z,99.90
2022-10-10T02:07:58.601Z,99.90
2022-10-10T02:13:04.349Z,99.90
2022-10-10T02:18:11.672Z,99.90
2022-10-10T02:23:17.577Z,99.90
2022-10-10T02:28:24.102Z,99.90
2022-10-10T02:33:36.069Z,99.90
2022-10-10T02:38:41.795Z,99.90
2022-10-10T02:43:45.431Z,99.90
2022-10-10T02:48:49.893Z,99.90
2022-10-10T02:53:52.976Z,99.90
2022-10-10T02:58:56.021Z,99.90
2022-10-10T03:04:00.362Z,99.90
2022-10-10T03:09:04.613Z,99.90
2022-10-10T03:14:07.680Z,99.90
2022-10-10T03:19:12.070Z,99.90
2022-10-10T03:24:15.696Z,99.90
2022-10-10T03:29:18.798Z,99.90
2022-10-10T03:34:23.402Z,99.90
2022-10-10T03:39:26.518Z,99.90
2022-10-10T03:44:29.624Z,99.90
2022-10-10T03:49:34.333Z,99.90
2022-10-10T03:54:37.562Z,99.90
2022-10-10T03:59:41.017Z,99.90
2022-10-10T04:04:45.352Z,99.90
2022-10-10T04:09:48.428Z,99.90
2022-10-10T04:14:51.496Z,99.90
2022-10-10T04:19:57.639Z,99.90
2022-10-10T04:25:00.706Z,99.90
2022-10-10T04:30:04.497Z,99.90
2022-10-10T04:35:09.265Z,99.90
2022-10-10T04:40:12.477Z,99.90
2022-10-10T04:45:18.259Z,99.90
2022-10-10T04:50:24.071Z,99.90
2022-10-10T04:55:27.223Z,99.90
2022-10-10T05:00:30.629Z,99.90
2022-10-10T05:05:35.064Z,99.90
2022-10-10T05:10:39.206Z,99.90
2022-10-10T05:15:43.214Z,99.90
2022-10-10T05:20:47.853Z,99.90
2022-10-10T05:25:51.476Z,99.90
2022-10-10T05:30:54.796Z,99.90
2022-10-10T05:36:04.662Z,99.90
2022-10-10T05:41:08.699Z,99.90
2022-10-10T05:46:11.865Z,99.90
2022-10-10T05:51:16.495Z,99.90
2022-10-10T05:56:19.621Z,99.90
2022-10-10T06:01:22.719Z,99.90
2022-10-10T06:06:27.501Z,99.90
2022-10-10T06:11:30.615Z,99.90
2022-10-10T06:16:33.772Z,99.90
2022-10-10T06:21:38.331Z,99.90
2022-10-10T06:26:41.378Z,99.90
2022-10-10T06:31:44.431Z,99.90
2022-10-10T06:36:52.060Z,99.90
2022-10-10T06:41:55.110Z,99.90
2022-10-10T06:46:58.171Z,99.90
2022-10-10T06:52:02.734Z,99.90
2022-10-10T06:57:06.167Z,99.90
2022-10-10T07:02:12.734Z,99.90
2022-10-10T07:07:17.133Z,99.90
2022-10-10T07:12:20.349Z,99.90
2022-10-10T07:17:23.347Z,99.90
2022-10-10T07:22:27.712Z,99.90
2022-10-10T07:27:30.676Z,99.90
2022-10-10T07:32:34.105Z,99.90
2022-10-10T07:37:39.240Z,99.90
2022-10-10T07:42:42.594Z,98.80
2022-10-10T07:47:45.632Z,99.90
2022-10-10T07:52:50.120Z,99.90
2022-10-10T07:57:53.695Z,99.90
2022-10-10T08:02:56.899Z,99.90
2022-10-10T08:08:01.535Z,99.90
2022-10-10T08:13:05.063Z,99.90
2022-10-10T08:18:08.187Z,98.10
2022-10-10T08:23:12.856Z,93.10
2022-10-10T08:28:16.577Z,90.50
2022-10-10T08:33:20.278Z,84.80
2022-10-10T08:38:24.712Z,86.10
2022-10-10T08:43:33.678Z,81.40
2022-10-10T10:27:26.713Z,92.60
2022-10-10T10:32:46.798Z,92.40
2022-10-10T10:38:06.097Z,91.90
2022-10-10T10:43:38.202Z,93.00
2022-10-10T10:48:45.465Z,91.80
2022-10-10T10:53:59.870Z,88.60
2022-10-10T11:00:16.628Z,84.80
2022-10-10T11:05:31.119Z,90.00
2022-10-10T11:10:50.608Z,90.80
2022-10-10T11:16:06.634Z,90.40
2022-10-10T11:59:06.225Z,84.70
2022-10-10T12:04:09.706Z,78.90
2022-10-10T12:09:18.341Z,78.70
2022-10-10T12:14:25.724Z,76.60
2022-10-10T12:19:29.615Z,73.70
2022-10-10T12:24:34.649Z,74.40
2022-10-10T12:29:50.109Z,73.60
2022-10-10T12:35:00.214Z,72.80
2022-10-10T12:40:22.139Z,72.80
2022-10-10T12:46:11.454Z,71.50
2022-10-10T12:51:22.945Z,73.10
2022-10-10T12:56:38.775Z,73.00
2022-10-10T13:01:45.281Z,73.00
2022-10-10T13:06:53.741Z,75.40
2022-10-10T13:11:59.874Z,74.40
2022-10-10T13:17:03.195Z,75.70
2022-10-10T13:22:08.701Z,78.50
2022-10-10T13:27:17.437Z,78.30
2022-10-10T13:32:24.116Z,78.50
2022-10-10T13:37:29.691Z,78.80
2022-10-10T13:42:35.058Z,78.50
2022-10-10T13:47:48.719Z,79.60
2022-10-10T13:53:43.306Z,80.80
2022-10-10T13:58:50.410Z,83.60
2022-10-10T14:03:56.927Z,89.00
2022-10-10T14:09:12.565Z,90.80
2022-10-10T14:14:21.420Z,92.00
2022-10-10T14:19:24.983Z,93.20
2022-10-10T14:24:29.936Z,94.50
2022-10-10T14:29:33.132Z,95.10
2022-10-10T14:34:36.269Z,94.00
2022-10-10T14:39:40.691Z,94.40
2022-10-10T14:44:44.138Z,94.00
2022-10-10T14:49:48.075Z,94.90
2022-10-10T14:54:52.501Z,95.10
2022-10-10T14:59:55.668Z,95.80
2022-10-10T15:04:58.896Z,97.10
2022-10-10T15:10:32.556Z,97.70
2022-10-10T15:15:27.878Z,99.50
2022-10-10T15:20:31.617Z,99.70
2022-10-10T15:25:36.158Z,99.90
2022-10-10T15:30:42.905Z,99.90
2022-10-10T15:36:07.862Z,99.90
2022-10-10T15:41:11.134Z,99.90
2022-10-10T15:46:14.261Z,99.90
2022-10-10T15:51:17.751Z,99.90
2022-10-10T15:56:22.467Z,99.90
2022-10-10T16:01:26.007Z,99.90
2022-10-10T16:06:29.545Z,99.90
2022-10-10T16:11:36.643Z,99.90
2022-10-10T16:16:39.945Z,99.90
2022-10-10T16:21:43.278Z,99.90
2022-10-10T16:49:31.407Z,99.90
2022-10-10T16:54:35.894Z,99.90
2022-10-10T16:59:39.119Z,99.90
2022-10-10T17:04:43.929Z,99.90
2022-10-10T17:09:47.119Z,99.90
2022-10-10T17:14:50.201Z,99.90
2022-10-10T17:19:55.310Z,99.90
2022-10-10T17:24:58.524Z,99.90
2022-10-10T17:30:01.879Z,99.90
2022-10-10T17:35:07.645Z,99.90
2022-10-10T17:40:11.278Z,99.90
2022-10-10T17:45:14.467Z,99.90
2022-10-10T17:52:59.159Z,99.90
2022-10-10T17:58:02.912Z,99.90
2022-10-10T18:03:08.878Z,99.90
2022-10-10T18:08:13.722Z,99.90
2022-10-10T18:13:17.124Z,99.90
2022-10-10T18:18:20.706Z,99.90
2022-10-10T18:23:28.055Z,99.90
2022-10-10T18:28:32.905Z,99.90
2022-10-10T18:33:36.514Z,99.90
2022-10-10T18:38:41.025Z,99.90
2022-10-10T18:43:44.917Z,99.90
2022-10-10T18:48:52.987Z,99.90
2022-10-10T18:54:02.114Z,99.90
2022-10-10T18:59:08.244Z,99.90
2022-10-10T19:04:13.873Z,99.90
2022-10-10T20:32:17.666Z,99.90
2022-10-10T20:37:20.732Z,99.90
2022-10-10T20:42:24.142Z,99.90
2022-10-10T20:47:28.780Z,99.90
2022-10-10T20:52:32.195Z,99.90
2022-10-10T20:57:35.301Z,99.90
2022-10-10T21:02:39.830Z,99.90
2022-10-10T21:07:42.938Z,99.90
2022-10-10T21:12:46.455Z,99.90
2022-10-10T21:17:51.186Z,99.90
2022-10-10T21:22:55.709Z,99.90
2022-10-10T21:27:58.733Z,99.90
2022-10-10T21:33:03.773Z,99.90
2022-10-10T21:38:07.198Z,99.90
2022-10-10T21:43:11.022Z,99.90
2022-10-10T21:48:15.496Z,99.90
2022-10-10T21:53:18.458Z,99.90
2022-10-10T21:58:21.932Z,99.90
2022-10-10T22:03:26.328Z,99.90
2022-10-10T22:08:50.302Z,99.90
2022-10-10T22:13:53.436Z,99.90
2022-10-10T22:18:58.855Z,99.90
2022-10-10T22:24:04.749Z,99.90
2022-10-10T22:29:08.653Z,99.90
2022-10-10T22:34:13.786Z,99.90
2022-10-10T22:39:16.928Z,99.90
2022-10-10T22:44:20.964Z,99.90
2022-10-10T22:49:25.512Z,99.90
2022-10-10T22:54:28.759Z,99.90
2022-10-10T22:59:31.921Z,99.90
2022-10-10T23:04:36.370Z,99.90
2022-10-10T23:09:39.688Z,99.90
2022-10-10T23:14:42.729Z,99.90
2022-10-10T23:19:47.250Z,99.90
2022-10-10T23:24:50.236Z,99.90
2022-10-10T23:29:53.366Z,99.90
2022-10-10T23:34:58.014Z,99.90
